sensor_id;sensor_type;location;lat;lon;timestamp;temperature;humidity
17956;DHT22;27666;51.498;11.966;2024-01-10T05:41:00;-9.20;99.90
17956;DHT22;27666;51.498;11.966;2024-01-10T05:43:47;-9.00;99.90
17956;DHT22;27666;51.498;11.966;2024-01-10T05:46:33;-9.00;99.90
17956;DHT22;27666;51.498;11.966;2024-01-10T05:49:20;-8.80;99.90
17956;DHT22;27666;51.498;11.966;2024-01-10T05:52:07;-8.90;99.90
17956;DHT22;27666;51.498;11.966;2024-01-10T05:54:54;-8.90;99.90
17956;DHT22;27666;51.498;11.966;2024-01-10T05:57:42;-8.90;99.90
17956;DHT22;27666;51.498;11.966;2024-01-10T06:00:28;-8.90;99.90
17956;DHT22;27666;51.498;11.966;2024-01-10T06:03:15;-8.90;99.90
17956;DHT22;27666;51.498;11.966;2024-01-10T06:06:02;-8.90;99.90
17956;DHT22;27666;51.498;11.966;2024-01-10T17:04:51;-4.60;99.90
17956;DHT22;27666;51.498;11.966;2024-01-10T17:07:38;-4.70;99.90
17956;DHT22;27666;51.498;11.966;2024-01-10T17:10:25;-4.50;99.90
17956;DHT22;27666;51.498;11.966;2024-01-10T17:13:11;-4.60;99.90
17956;DHT22;27666;51.498;11.966;2024-01-10T17:15:58;-4.60;99.90
17956;DHT22;27666;51.498;11.966;2024-01-10T17:18:45;-4.70;99.90
17956;DHT22;27666;51.498;11.966;2024-01-10T17:21:33;-4.70;99.90
17956;DHT22;27666;51.498;11.966;2024-01-10T17:24:19;-4.60;99.90
17956;DHT22;27666;51.498;11.966;2024-01-10T17:27:06;-4.70;99.90
17956;DHT22;27666;51.498;11.966;2024-01-10T17:29:53;-4.50;99.90
17956;DHT22;27666;51.498;11.966;2024-01-10T17:32:39;-4.50;99.90
17956;DHT22;27666;51.498;11.966;2024-01-10T17:35:26;-4.40;99.90
17956;DHT22;27666;51.498;11.966;2024-01-10T17:38:15;-4.50;99.90
17956;DHT22;27666;51.498;11.966;2024-01-10T17:41:02;-4.60;99.90
17956;DHT22;27666;51.498;11.966;2024-01-10T17:43:49;-4.70;99.90
17956;DHT22;27666;51.498;11.966;2024-01-10T17:46:37;-4.70;99.90
17956;DHT22;27666;51.498;11.966;2024-01-10T17:49:24;-4.70;99.90
17956;DHT22;27666;51.498;11.966;2024-01-10T17:52:10;-4.60;99.90
17956;DHT22;27666;51.498;11.966;2024-01-10T17:54:58;-4.50;99.90
17956;DHT22;27666;51.498;11.966;2024-01-10T17:57:45;-4.50;99.90
17956;DHT22;27666;51.498;11.966;2024-01-10T18:00:31;-4.50;99.90
17956;DHT22;27666;51.498;11.966;2024-01-10T18:03:18;-4.30;99.90
17956;DHT22;27666;51.498;11.966;2024-01-10T18:06:05;-4.30;99.90
17956;DHT22;27666;51.498;11.966;2024-01-10T18:08:52;-4.20;99.90
17956;DHT22;27666;51.498;11.966;2024-01-10T18:11:41;-4.30;99.90
17956;DHT22;27666;51.498;11.966;2024-01-10T18:14:27;-4.30;99.90
17956;DHT22;27666;51.498;11.966;2024-01-10T18:17:14;-4.20;99.90
17956;DHT22;27666;51.498;11.966;2024-01-10T18:20:01;-4.10;99.90
17956;DHT22;27666;51.498;11.966;2024-01-10T18:22:48;-4.20;99.90
17956;DHT22;27666;51.498;11.966;2024-01-10T18:25:34;-4.20;99.90
17956;DHT22;27666;51.498;11.966;2024-01-10T18:28:25;-4.20;99.90
17956;DHT22;27666;51.498;11.966;2024-01-10T18:31:12;-4.20;99.90
17956;DHT22;27666;51.498;11.966;2024-01-10T18:33:58;-4.10;99.90
17956;DHT22;27666;51.498;11.966;2024-01-10T18:36:47;-4.30;99.90
17956;DHT22;27666;51.498;11.966;2024-01-10T18:39:33;-4.20;99.90
17956;DHT22;27666;51.498;11.966;2024-01-10T18:42:19;-4.20;99.90
17956;DHT22;27666;51.498;11.966;2024-01-10T18:45:08;-4.20;99.90
17956;DHT22;27666;51.498;11.966;2024-01-10T18:47:55;-4.30;99.90
17956;DHT22;27666;51.498;11.966;2024-01-10T18:50:42;-4.30;99.90
17956;DHT22;27666;51.498;11.966;2024-01-10T18:53:29;-4.30;99.90
17956;DHT22;27666;51.498;11.966;2024-01-10T18:56:16;-4.30;99.90
17956;DHT22;27666;51.498;11.966;2024-01-10T18:59:03;-4.30;99.90
17956;DHT22;27666;51.498;11.966;2024-01-10T19:01:51;-4.30;99.90
17956;DHT22;27666;51.498;11.966;2024-01-10T19:04:37;-4.20;99.90
17956;DHT22;27666;51.498;11.966;2024-01-10T19:07:23;-4.20;99.90
17956;DHT22;27666;51.498;11.966;2024-01-10T19:10:10;-4.20;99.90
17956;DHT22;27666;51.498;11.966;2024-01-10T19:12:57;-4.20;99.90
17956;DHT22;27666;51.498;11.966;2024-01-10T19:15:44;-4.30;99.90
17956;DHT22;27666;51.498;11.966;2024-01-10T19:18:32;-4.30;99.90
17956;DHT22;27666;51.498;11.966;2024-01-10T19:21:18;-4.30;99.90
17956;DHT22;27666;51.498;11.966;2024-01-10T19:24:05;-4.30;99.90
17956;DHT22;27666;51.498;11.966;2024-01-10T19:26:52;-4.40;99.90
17956;DHT22;27666;51.498;11.966;2024-01-10T19:29:39;-4.30;99.90
17956;DHT22;27666;51.498;11.966;2024-01-10T19:32:26;-4.40;99.90
17956;DHT22;27666;51.498;11.966;2024-01-10T19:35:14;-4.40;99.90
17956;DHT22;27666;51.498;11.966;2024-01-10T19:38:00;-4.40;99.90
17956;DHT22;27666;51.498;11.966;2024-01-10T19:40:47;-4.40;99.90
17956;DHT22;27666;51.498;11.966;2024-01-10T19:43:34;-4.50;99.90
17956;DHT22;27666;51.498;11.966;2024-01-10T19:46:20;-4.60;99.90
17956;DHT22;27666;51.498;11.966;2024-01-10T19:49:07;-4.70;99.90
17956;DHT22;27666;51.498;11.966;2024-01-10T19:51:54;-4.70;99.90
17956;DHT22;27666;51.498;11.966;2024-01-10T19:54:41;-4.80;99.90
17956;DHT22;27666;51.498;11.966;2024-01-10T19:57:28;-4.70;99.90
17956;DHT22;27666;51.498;11.966;2024-01-10T20:00:14;-4.60;99.90
17956;DHT22;27666;51.498;11.966;2024-01-10T20:03:01;-4.70;99.90
17956;DHT22;27666;51.498;11.966;2024-01-10T20:05:48;-4.80;99.90
17956;DHT22;27666;51.498;11.966;2024-01-10T20:08:37;-4.80;99.90
17956;DHT22;27666;51.498;11.966;2024-01-10T20:11:23;-4.80;99.90
17956;DHT22;27666;51.498;11.966;2024-01-10T20:14:10;-4.90;99.90
17956;DHT22;27666;51.498;11.966;2024-01-10T20:16:56;-4.90;99.90
17956;DHT22;27666;51.498;11.966;2024-01-10T20:19:43;-5.00;99.90
17956;DHT22;27666;51.498;11.966;2024-01-10T20:22:29;-5.10;99.90
17956;DHT22;27666;51.498;11.966;2024-01-10T20:25:17;-5.10;99.90
17956;DHT22;27666;51.498;11.966;2024-01-10T20:28:12;-5.10;99.90
17956;DHT22;27666;51.498;11.966;2024-01-10T20:31:00;-5.00;99.90
17956;DHT22;27666;51.498;11.966;2024-01-10T20:33:51;-5.00;99.90
17956;DHT22;27666;51.498;11.966;2024-01-10T20:36:37;-5.00;99.90
17956;DHT22;27666;51.498;11.966;2024-01-10T20:39:24;-5.00;99.90
17956;DHT22;27666;51.498;11.966;2024-01-10T20:42:12;-5.00;99.90
17956;DHT22;27666;51.498;11.966;2024-01-10T20:44:59;-5.00;99.90
17956;DHT22;27666;51.498;11.966;2024-01-10T20:47:47;-5.10;99.90
17956;DHT22;27666;51.498;11.966;2024-01-10T20:50:34;-5.10;99.90
17956;DHT22;27666;51.498;11.966;2024-01-10T20:53:21;-5.10;99.90
17956;DHT22;27666;51.498;11.966;2024-01-10T20:56:08;-5.20;99.90
17956;DHT22;27666;51.498;11.966;2024-01-10T20:58:56;-5.10;99.90
17956;DHT22;27666;51.498;11.966;2024-01-10T21:01:42;-5.20;99.90
17956;DHT22;27666;51.498;11.966;2024-01-10T21:04:29;-5.20;99.90
17956;DHT22;27666;51.498;11.966;2024-01-10T21:07:15;-5.20;99.90
17956;DHT22;27666;51.498;11.966;2024-01-10T21:10:04;-5.20;99.90
17956;DHT22;27666;51.498;11.966;2024-01-10T21:12:50;-5.10;99.90
17956;DHT22;27666;51.498;11.966;2024-01-10T21:15:38;-5.30;99.90
17956;DHT22;27666;51.498;11.966;2024-01-10T21:18:24;-5.50;99.90
17956;DHT22;27666;51.498;11.966;2024-01-10T21:21:11;-5.70;99.90
17956;DHT22;27666;51.498;11.966;2024-01-10T21:23:58;-5.80;99.90
17956;DHT22;27666;51.498;11.966;2024-01-10T21:26:45;-5.80;99.90
17956;DHT22;27666;51.498;11.966;2024-01-10T21:29:31;-5.70;99.90
17956;DHT22;27666;51.498;11.966;2024-01-10T21:32:19;-5.70;99.90
